^^
Your Local Weather - Clay, NY Station Historical Data
Daily Summary for February 16, 2018 Units:  Both    English   Metric
« Previous Day
Next Day »
Daily Weekly Monthly Yearly Custom
  High: Low: Average:
Temperature: 44.0 °F /  6.7 °C 23.8 °F /  -4.6 °C 34 °F /  1.1 °C
Dew Point: 41.8 °F /  5.4 °C 15.0 °F /  -9.4 °C 29.6 °F /  -1.3 °C
Humidity: 94% 63% 84%
Wind Speed: 8.0mph /  12.9km/h - 3.2mph /  5.1km/h
Wind Gust: 18.0mph /  29km/h - -
Wind- - WNW
Pressure: 30.24 in /  1023.9 hPa 29.58 in /  1001.6 hPa -
Precipitation: 0.12 in /  3.05 mm    
Historical Graphs
 
 
Tabular Data for February 16, 2018
Time Temperature Dew Point Pressure Wind Wind Speed Wind Gust Humidity Rainfall Rate (Hourly) solar
00:04 44.0 °F /  6.7 °C 41.8 °F /  5.4 °C 29.61in /  1002.6hPa NW 3.0mph /  4.8km/h 6.0mph /  9.7km/h 92% 0.00in /  0mm 0 W/m2
00:10 43.7 °F /  6.5 °C 41.5 °F /  5.3 °C 29.61in /  1002.6hPa NNW 3.0mph /  4.8km/h 3.0mph /  4.8km/h 92% 0.00in /  0mm 0 W/m2
00:16 43.5 °F /  6.4 °C 41.3 °F /  5.2 °C 29.61in /  1002.6hPa NW 3.0mph /  4.8km/h 3.0mph /  4.8km/h 92% 0.04in /  1.02mm 0 W/m2
00:22 43.3 °F /  6.3 °C 41.1 °F /  5.1 °C 29.61in /  1002.6hPa NW 2.0mph /  3.2km/h 6.0mph /  9.7km/h 92% 0.04in /  1.02mm 0 W/m2
00:28 43.1 °F /  6.2 °C 41.2 °F /  5.1 °C 29.61in /  1002.6hPa NNW 2.0mph /  3.2km/h 6.0mph /  9.7km/h 93% 0.04in /  1.02mm 0 W/m2
00:34 43.0 °F /  6.1 °C 41.1 °F /  5.1 °C 29.61in /  1002.6hPa NNW 1.0mph /  1.6km/h 2.0mph /  3.2km/h 93% 0.00in /  0mm 0 W/m2
00:40 42.9 °F /  6.1 °C 40.7 °F /  4.8 °C 29.62in /  1002.9hPa NNW 1.0mph /  1.6km/h 1.0mph /  1.6km/h 92% 0.00in /  0mm 0 W/m2
00:46 42.7 °F /  5.9 °C 40.8 °F /  4.9 °C 29.62in /  1002.9hPa NNW 1.0mph /  1.6km/h 1.0mph /  1.6km/h 93% 0.06in /  1.52mm 0 W/m2
00:52 42.5 °F /  5.8 °C 40.6 °F /  4.8 °C 29.61in /  1002.6hPa NNW 1.0mph /  1.6km/h 2.0mph /  3.2km/h 93% 0.06in /  1.52mm 0 W/m2
00:58 42.4 °F /  5.8 °C 40.5 °F /  4.7 °C 29.61in /  1002.6hPa NNW 1.0mph /  1.6km/h 2.0mph /  3.2km/h 93% 0.05in /  1.27mm 0 W/m2
01:04 42.2 °F /  5.7 °C 40.3 °F /  4.6 °C 29.61in /  1002.6hPa NNW 1.0mph /  1.6km/h 1.0mph /  1.6km/h 93% 0.12in /  3.05mm 0 W/m2
01:10 42.0 °F /  5.6 °C 40.1 °F /  4.5 °C 29.61in /  1002.6hPa Calm   1.0mph /  1.6km/h 93% 0.07in /  1.78mm 0 W/m2
01:16 41.7 °F /  5.4 °C 39.8 °F /  4.3 °C 29.61in /  1002.6hPa Calm   2.0mph /  3.2km/h 93% 0.13in /  3.3mm 0 W/m2
01:22 41.5 °F /  5.3 °C 39.6 °F /  4.2 °C 29.62in /  1002.9hPa Calm   1.0mph /  1.6km/h 93% 0.07in /  1.78mm 0 W/m2
01:28 41.3 °F /  5.2 °C 39.4 °F /  4.1 °C 29.63in /  1003.3hPa Calm   1.0mph /  1.6km/h 93% 0.07in /  1.78mm 0 W/m2
01:34 41.2 °F /  5.1 °C 39.3 °F /  4.1 °C 29.63in /  1003.3hPa Calm     93% 0.05in /  1.27mm 0 W/m2
01:40 41.1 °F /  5.1 °C 39.2 °F /  4 °C 29.62in /  1002.9hPa Calm     93% 0.10in /  2.54mm 0 W/m2
01:46 41.0 °F /  5 °C 39.1 °F /  3.9 °C 29.62in /  1002.9hPa Calm     93% 0.09in /  2.29mm 0 W/m2
01:52 40.9 °F /  4.9 °C 39.0 °F /  3.9 °C 29.63in /  1003.3hPa Calm     93% 0.09in /  2.29mm 0 W/m2
01:58 40.8 °F /  4.9 °C 38.9 °F /  3.8 °C 29.63in /  1003.3hPa Calm     93% 0.05in /  1.27mm 0 W/m2
02:04 40.6 °F /  4.8 °C 38.7 °F /  3.7 °C 29.62in /  1002.9hPa Calm     93% 0.00in /  0mm 0 W/m2
02:10 40.4 °F /  4.7 °C 38.5 °F /  3.6 °C 29.61in /  1002.6hPa Calm     93% 0.00in /  0mm 0 W/m2
02:16 40.0 °F /  4.4 °C 38.1 °F /  3.4 °C 29.61in /  1002.6hPa Calm     93% 0.00in /  0mm 0 W/m2
02:22 39.7 °F /  4.3 °C 37.8 °F /  3.2 °C 29.61in /  1002.6hPa Calm     93% 0.00in /  0mm 0 W/m2
02:28 39.7 °F /  4.3 °C 37.8 °F /  3.2 °C 29.61in /  1002.6hPa Calm     93% 0.00in /  0mm 0 W/m2
02:34 39.6 °F /  4.2 °C 37.7 °F /  3.2 °C 29.61in /  1002.6hPa Calm     93% 0.00in /  0mm 0 W/m2
02:40 39.5 °F /  4.2 °C 37.6 °F /  3.1 °C 29.61in /  1002.6hPa Calm     93% 0.00in /  0mm 0 W/m2
02:46 39.3 °F /  4.1 °C 37.4 °F /  3 °C 29.60in /  1002.3hPa Calm     93% 0.00in /  0mm 0 W/m2
02:52 39.2 °F /  4 °C 37.3 °F /  2.9 °C 29.60in /  1002.3hPa Calm     93% 0.00in /  0mm 0 W/m2
02:58 39.1 °F /  3.9 °C 37.2 °F /  2.9 °C 29.60in /  1002.3hPa Calm     93% 0.00in /  0mm 0 W/m2
03:04 39.0 °F /  3.9 °C 37.1 °F /  2.8 °C 29.60in /  1002.3hPa Calm     93% 0.00in /  0mm 0 W/m2
03:10 38.9 °F /  3.8 °C 37.0 °F /  2.8 °C 29.61in /  1002.6hPa Calm     93% 0.00in /  0mm 0 W/m2
03:16 38.7 °F /  3.7 °C 36.9 °F /  2.7 °C 29.60in /  1002.3hPa Calm     93% 0.00in /  0mm 0 W/m2
03:22 38.6 °F /  3.7 °C 36.8 °F /  2.7 °C 29.60in /  1002.3hPa Calm     93% 0.00in /  0mm 0 W/m2
03:28 38.5 °F /  3.6 °C 36.7 °F /  2.6 °C 29.60in /  1002.3hPa Calm     93% 0.00in /  0mm 0 W/m2
03:34 38.5 °F /  3.6 °C 36.7 °F /  2.6 °C 29.60in /  1002.3hPa Calm     93% 0.00in /  0mm 0 W/m2
03:40 38.5 °F /  3.6 °C 36.7 °F /  2.6 °C 29.59in /  1001.9hPa Calm     93% 0.00in /  0mm 0 W/m2
03:46 38.5 °F /  3.6 °C 36.7 °F /  2.6 °C 29.59in /  1001.9hPa Calm     93% 0.00in /  0mm 0 W/m2
03:52 38.5 °F /  3.6 °C 36.7 °F /  2.6 °C 29.59in /  1001.9hPa Calm     93% 0.00in /  0mm 0 W/m2
03:58 38.3 °F /  3.5 °C 36.5 °F /  2.5 °C 29.59in /  1001.9hPa Calm     93% 0.00in /  0mm 0 W/m2
04:04 38.2 °F /  3.4 °C 36.4 °F /  2.4 °C 29.58in /  1001.6hPa Calm     93% 0.00in /  0mm 0 W/m2
04:12 38.1 °F /  3.4 °C 36.3 °F /  2.4 °C 29.58in /  1001.6hPa Calm     93% 0.00in /  0mm 0 W/m2
04:18 38.0 °F /  3.3 °C 36.2 °F /  2.3 °C 29.58in /  1001.6hPa Calm     93% 0.00in /  0mm 0 W/m2
04:24 38.1 °F /  3.4 °C 36.3 °F /  2.4 °C 29.59in /  1001.9hPa Calm     93% 0.00in /  0mm 0 W/m2
04:30 38.0 °F /  3.3 °C 36.2 °F /  2.3 °C 29.58in /  1001.6hPa Calm     93% 0.00in /  0mm 0 W/m2
04:36 37.9 °F /  3.3 °C 36.1 °F /  2.3 °C 29.58in /  1001.6hPa Calm     93% 0.00in /  0mm 0 W/m2
04:42 37.9 °F /  3.3 °C 36.1 °F /  2.3 °C 29.58in /  1001.6hPa Calm     93% 0.00in /  0mm 0 W/m2
04:48 37.9 °F /  3.3 °C 36.1 °F /  2.3 °C 29.59in /  1001.9hPa Calm     93% 0.00in /  0mm 0 W/m2
04:54 37.9 °F /  3.3 °C 36.1 °F /  2.3 °C 29.59in /  1001.9hPa Calm     93% 0.00in /  0mm 0 W/m2
05:00 37.8 °F /  3.2 °C 36.0 °F /  2.2 °C 29.59in /  1001.9hPa Calm     93% 0.00in /  0mm 0 W/m2
05:06 37.8 °F /  3.2 °C 36.0 °F /  2.2 °C 29.60in /  1002.3hPa Calm     93% 0.00in /  0mm 0 W/m2
05:12 37.7 °F /  3.2 °C 35.9 °F /  2.2 °C 29.59in /  1001.9hPa Calm     93% 0.00in /  0mm 0 W/m2
05:18 37.7 °F /  3.2 °C 35.9 °F /  2.2 °C 29.60in /  1002.3hPa Calm     93% 0.00in /  0mm 0 W/m2
05:24 37.6 °F /  3.1 °C 35.8 °F /  2.1 °C 29.60in /  1002.3hPa Calm     93% 0.00in /  0mm 0 W/m2
05:30 37.6 °F /  3.1 °C 35.8 °F /  2.1 °C 29.60in /  1002.3hPa Calm     93% 0.00in /  0mm 0 W/m2
05:36 37.7 °F /  3.2 °C 35.9 °F /  2.2 °C 29.61in /  1002.6hPa Calm     93% 0.00in /  0mm 0 W/m2
05:42 37.6 °F /  3.1 °C 35.8 °F /  2.1 °C 29.61in /  1002.6hPa Calm     93% 0.00in /  0mm 0 W/m2
05:48 37.6 °F /  3.1 °C 35.8 °F /  2.1 °C 29.61in /  1002.6hPa Calm     93% 0.00in /  0mm 0 W/m2
05:54 37.5 °F /  3.1 °C 35.7 °F /  2.1 °C 29.61in /  1002.6hPa Calm     93% 0.00in /  0mm 0 W/m2
06:00 37.4 °F /  3 °C 35.6 °F /  2 °C 29.61in /  1002.6hPa Calm     93% 0.00in /  0mm 0 W/m2
06:06 37.3 °F /  2.9 °C 35.5 °F /  1.9 °C 29.61in /  1002.6hPa Calm     93% 0.00in /  0mm 0 W/m2
06:12 37.3 °F /  2.9 °C 35.5 °F /  1.9 °C 29.61in /  1002.6hPa Calm     93% 0.00in /  0mm 0 W/m2
06:18 37.3 °F /  2.9 °C 35.5 °F /  1.9 °C 29.61in /  1002.6hPa Calm     93% 0.00in /  0mm 0 W/m2
06:24 37.3 °F /  2.9 °C 35.5 °F /  1.9 °C 29.60in /  1002.3hPa Calm     93% 0.00in /  0mm 0 W/m2
06:30 37.4 °F /  3 °C 35.6 °F /  2 °C 29.61in /  1002.6hPa Calm     93% 0.00in /  0mm 0 W/m2
06:36 37.3 °F /  2.9 °C 35.5 °F /  1.9 °C 29.61in /  1002.6hPa Calm   1.0mph /  1.6km/h 93% 0.00in /  0mm 0 W/m2
06:42 37.3 °F /  2.9 °C 35.5 °F /  1.9 °C 29.61in /  1002.6hPa Calm     93% 0.00in /  0mm 0 W/m2
06:48 37.3 °F /  2.9 °C 35.5 °F /  1.9 °C 29.60in /  1002.3hPa Calm     93% 0.00in /  0mm 0 W/m2
06:54 37.3 °F /  2.9 °C 35.5 °F /  1.9 °C 29.60in /  1002.3hPa Calm     93% 0.00in /  0mm 0 W/m2
07:00 37.3 °F /  2.9 °C 35.5 °F /  1.9 °C 29.62in /  1002.9hPa Calm     93% 0.00in /  0mm 0 W/m2
07:06 37.2 °F /  2.9 °C 35.4 °F /  1.9 °C 29.61in /  1002.6hPa Calm     93% 0.00in /  0mm 0 W/m2
07:12 37.1 °F /  2.8 °C 35.3 °F /  1.8 °C 29.61in /  1002.6hPa Calm     93% 0.00in /  0mm 0 W/m2
07:18 37.1 °F /  2.8 °C 35.5 °F /  1.9 °C 29.62in /  1002.9hPa Calm   1.0mph /  1.6km/h 94% 0.00in /  0mm 0 W/m2
07:24 37.2 °F /  2.9 °C 35.4 °F /  1.9 °C 29.61in /  1002.6hPa Calm   1.0mph /  1.6km/h 93% 0.00in /  0mm 0 W/m2
07:30 37.3 °F /  2.9 °C 35.5 °F /  1.9 °C 29.62in /  1002.9hPa Calm     93% 0.00in /  0mm 5 W/m2
07:36 37.3 °F /  2.9 °C 35.7 °F /  2.1 °C 29.62in /  1002.9hPa Calm     94% 0.00in /  0mm 5 W/m2
07:42 37.1 °F /  2.8 °C 35.5 °F /  1.9 °C 29.63in /  1003.3hPa Calm     94% 0.00in /  0mm 5 W/m2
07:48 37.2 °F /  2.9 °C 35.6 °F /  2 °C 29.63in /  1003.3hPa NNW 1.0mph /  1.6km/h 2.0mph /  3.2km/h 94% 0.00in /  0mm 9 W/m2
07:54 37.1 °F /  2.8 °C 35.5 °F /  1.9 °C 29.62in /  1002.9hPa NNW 1.0mph /  1.6km/h 1.0mph /  1.6km/h 94% 0.00in /  0mm 11 W/m2
08:00 37.1 °F /  2.8 °C 35.5 °F /  1.9 °C 29.63in /  1003.3hPa Calm   1.0mph /  1.6km/h 94% 0.00in /  0mm 12 W/m2
08:06 37.0 °F /  2.8 °C 35.4 °F /  1.9 °C 29.63in /  1003.3hPa NNW 1.0mph /  1.6km/h 2.0mph /  3.2km/h 94% 0.00in /  0mm 19 W/m2
08:12 37.0 °F /  2.8 °C 35.4 °F /  1.9 °C 29.64in /  1003.6hPa Calm   1.0mph /  1.6km/h 94% 0.00in /  0mm 26 W/m2
08:18 37.1 °F /  2.8 °C 35.5 °F /  1.9 °C 29.64in /  1003.6hPa NNW 1.0mph /  1.6km/h 2.0mph /  3.2km/h 94% 0.00in /  0mm 26 W/m2
08:24 37.1 °F /  2.8 °C 35.5 °F /  1.9 °C 29.64in /  1003.6hPa NNW 1.0mph /  1.6km/h 2.0mph /  3.2km/h 94% 0.00in /  0mm 32 W/m2
08:30 37.1 °F /  2.8 °C 35.5 °F /  1.9 °C 29.64in /  1003.6hPa NNW 1.0mph /  1.6km/h 2.0mph /  3.2km/h 94% 0.00in /  0mm 35 W/m2
08:36 37.0 °F /  2.8 °C 35.4 °F /  1.9 °C 29.64in /  1003.6hPa NNW 2.0mph /  3.2km/h 2.0mph /  3.2km/h 94% 0.00in /  0mm 33 W/m2
08:42 37.0 °F /  2.8 °C 35.4 °F /  1.9 °C 29.64in /  1003.6hPa NNW 1.0mph /  1.6km/h 1.0mph /  1.6km/h 94% 0.00in /  0mm 33 W/m2
08:48 37.0 °F /  2.8 °C 35.4 °F /  1.9 °C 29.64in /  1003.6hPa NNW 1.0mph /  1.6km/h 3.0mph /  4.8km/h 94% 0.00in /  0mm 32 W/m2
08:54 37.0 °F /  2.8 °C 35.4 °F /  1.9 °C 29.64in /  1003.6hPa NNW 1.0mph /  1.6km/h 2.0mph /  3.2km/h 94% 0.00in /  0mm 35 W/m2
09:00 37.0 °F /  2.8 °C 35.4 °F /  1.9 °C 29.63in /  1003.3hPa NNW 1.0mph /  1.6km/h 1.0mph /  1.6km/h 94% 0.00in /  0mm 35 W/m2
09:06 37.0 °F /  2.8 °C 35.4 °F /  1.9 °C 29.64in /  1003.6hPa NNW 1.0mph /  1.6km/h 2.0mph /  3.2km/h 94% 0.00in /  0mm 42 W/m2
09:12 37.0 °F /  2.8 °C 35.4 °F /  1.9 °C 29.64in /  1003.6hPa NNW 1.0mph /  1.6km/h 1.0mph /  1.6km/h 94% 0.00in /  0mm 33 W/m2
09:18 37.0 °F /  2.8 °C 35.4 °F /  1.9 °C 29.65in /  1003.9hPa NNW 1.0mph /  1.6km/h 3.0mph /  4.8km/h 94% 0.00in /  0mm 35 W/m2
09:24 37.0 °F /  2.8 °C 35.4 °F /  1.9 °C 29.65in /  1003.9hPa NNW 2.0mph /  3.2km/h 3.0mph /  4.8km/h 94% 0.00in /  0mm 35 W/m2
09:30 36.9 °F /  2.7 °C 35.3 °F /  1.8 °C 29.65in /  1003.9hPa West 2.0mph /  3.2km/h 2.0mph /  3.2km/h 94% 0.00in /  0mm 49 W/m2
09:36 36.9 °F /  2.7 °C 35.3 °F /  1.8 °C 29.65in /  1003.9hPa West 2.0mph /  3.2km/h 3.0mph /  4.8km/h 94% 0.00in /  0mm 46 W/m2
09:42 36.9 °F /  2.7 °C 35.3 °F /  1.8 °C 29.66in /  1004.3hPa NW 3.0mph /  4.8km/h 3.0mph /  4.8km/h 94% 0.00in /  0mm 23 W/m2
09:48 36.8 °F /  2.7 °C 35.2 °F /  1.8 °C 29.67in /  1004.6hPa WNW 3.0mph /  4.8km/h 5.0mph /  8km/h 94% 0.00in /  0mm 19 W/m2
09:54 36.7 °F /  2.6 °C 35.1 °F /  1.7 °C 29.68in /  1005hPa WNW 4.0mph /  6.4km/h 8.0mph /  12.9km/h 94% 0.00in /  0mm 19 W/m2
10:00 36.6 °F /  2.6 °C 35.0 °F /  1.7 °C 29.69in /  1005.3hPa NW 4.0mph /  6.4km/h 4.0mph /  6.4km/h 94% 0.00in /  0mm 16 W/m2
10:06 36.4 °F /  2.4 °C 34.8 °F /  1.6 °C 29.70in /  1005.6hPa NNW 4.0mph /  6.4km/h 7.0mph /  11.3km/h 94% 0.00in /  0mm 21 W/m2
10:12 36.3 °F /  2.4 °C 34.5 °F /  1.4 °C 29.69in /  1005.3hPa West 4.0mph /  6.4km/h 5.0mph /  8km/h 93% 0.00in /  0mm 19 W/m2
10:18 36.2 °F /  2.3 °C 34.4 °F /  1.3 °C 29.69in /  1005.3hPa West 3.0mph /  4.8km/h 5.0mph /  8km/h 93% 0.00in /  0mm 37 W/m2
10:24 36.0 °F /  2.2 °C 34.2 °F /  1.2 °C 29.68in /  1005hPa West 3.0mph /  4.8km/h 8.0mph /  12.9km/h 93% 0.00in /  0mm 37 W/m2
10:30 35.8 °F /  2.1 °C 34.0 °F /  1.1 °C 29.69in /  1005.3hPa WNW 4.0mph /  6.4km/h 4.0mph /  6.4km/h 93% 0.00in /  0mm 60 W/m2
10:36 35.7 °F /  2.1 °C 33.9 °F /  1.1 °C 29.68in /  1005hPa WNW 4.0mph /  6.4km/h 7.0mph /  11.3km/h 93% 0.00in /  0mm 102 W/m2
10:42 35.8 °F /  2.1 °C 34.0 °F /  1.1 °C 29.68in /  1005hPa WNW 4.0mph /  6.4km/h 4.0mph /  6.4km/h 93% 0.00in /  0mm 60 W/m2
10:48 35.7 °F /  2.1 °C 33.9 °F /  1.1 °C 29.69in /  1005.3hPa West 3.0mph /  4.8km/h 4.0mph /  6.4km/h 93% 0.00in /  0mm 39 W/m2
10:54 35.7 °F /  2.1 °C 33.9 °F /  1.1 °C 29.70in /  1005.6hPa West 3.0mph /  4.8km/h 4.0mph /  6.4km/h 93% 0.00in /  0mm 32 W/m2
11:00 35.7 °F /  2.1 °C 33.9 °F /  1.1 °C 29.70in /  1005.6hPa WNW 3.0mph /  4.8km/h 3.0mph /  4.8km/h 93% 0.00in /  0mm 40 W/m2
11:06 35.7 °F /  2.1 °C 33.9 °F /  1.1 °C 29.70in /  1005.6hPa SW 3.0mph /  4.8km/h 3.0mph /  4.8km/h 93% 0.00in /  0mm 47 W/m2
11:12 35.6 °F /  2 °C 33.8 °F /  1 °C 29.70in /  1005.6hPa SW 3.0mph /  4.8km/h 3.0mph /  4.8km/h 93% 0.00in /  0mm 39 W/m2
11:18 35.7 °F /  2.1 °C 33.9 °F /  1.1 °C 29.70in /  1005.6hPa WNW 3.0mph /  4.8km/h 3.0mph /  4.8km/h 93% 0.00in /  0mm 33 W/m2
11:24 35.7 °F /  2.1 °C 33.9 °F /  1.1 °C 29.71in /  1006hPa West 2.0mph /  3.2km/h 3.0mph /  4.8km/h 93% 0.00in /  0mm 44 W/m2
11:30 35.6 °F /  2 °C 33.8 °F /  1 °C 29.72in /  1006.3hPa WNW 3.0mph /  4.8km/h 5.0mph /  8km/h 93% 0.00in /  0mm 28 W/m2
11:36 35.5 °F /  1.9 °C 33.7 °F /  0.9 °C 29.72in /  1006.3hPa West 4.0mph /  6.4km/h 5.0mph /  8km/h 93% 0.00in /  0mm 33 W/m2
11:42 35.3 °F /  1.8 °C 33.5 °F /  0.8 °C 29.71in /  1006hPa NW 4.0mph /  6.4km/h 4.0mph /  6.4km/h 93% 0.00in /  0mm 51 W/m2
11:48 35.3 °F /  1.8 °C 33.5 °F /  0.8 °C 29.72in /  1006.3hPa NW 3.0mph /  4.8km/h 5.0mph /  8km/h 93% 0.00in /  0mm 35 W/m2
11:54 35.2 °F /  1.8 °C 33.1 °F /  0.6 °C 29.72in /  1006.3hPa WNW 4.0mph /  6.4km/h 6.0mph /  9.7km/h 92% 0.00in /  0mm 42 W/m2
12:00 35.0 °F /  1.7 °C 32.9 °F /  0.5 °C 29.73in /  1006.7hPa WNW 4.0mph /  6.4km/h 4.0mph /  6.4km/h 92% 0.00in /  0mm 33 W/m2
12:06 35.0 °F /  1.7 °C 32.9 °F /  0.5 °C 29.73in /  1006.7hPa WSW 4.0mph /  6.4km/h 6.0mph /  9.7km/h 92% 0.00in /  0mm 26 W/m2
12:12 34.9 °F /  1.6 °C 32.8 °F /  0.4 °C 29.73in /  1006.7hPa West 5.0mph /  8km/h 5.0mph /  8km/h 92% 0.00in /  0mm 32 W/m2
12:18 34.8 °F /  1.6 °C 32.7 °F /  0.4 °C 29.73in /  1006.7hPa WNW 4.0mph /  6.4km/h 5.0mph /  8km/h 92% 0.00in /  0mm 28 W/m2
12:24 34.8 °F /  1.6 °C 32.7 °F /  0.4 °C 29.73in /  1006.7hPa WSW 3.0mph /  4.8km/h 6.0mph /  9.7km/h 92% 0.00in /  0mm 32 W/m2
12:30 34.8 °F /  1.6 °C 32.7 °F /  0.4 °C 29.74in /  1007hPa West 4.0mph /  6.4km/h 7.0mph /  11.3km/h 92% 0.00in /  0mm 28 W/m2
12:36 34.8 °F /  1.6 °C 32.7 °F /  0.4 °C 29.75in /  1007.3hPa WNW 5.0mph /  8km/h 7.0mph /  11.3km/h 92% 0.00in /  0mm 28 W/m2
12:42 34.8 °F /  1.6 °C 32.7 °F /  0.4 °C 29.75in /  1007.3hPa West 5.0mph /  8km/h 7.0mph /  11.3km/h 92% 0.00in /  0mm 39 W/m2
12:48 34.8 °F /  1.6 °C 32.7 °F /  0.4 °C 29.75in /  1007.3hPa West 5.0mph /  8km/h 7.0mph /  11.3km/h 92% 0.00in /  0mm 37 W/m2
12:54 34.8 °F /  1.6 °C 32.4 °F /  0.2 °C 29.75in /  1007.3hPa West 6.0mph /  9.7km/h 12.0mph /  19.3km/h 91% 0.00in /  0mm 37 W/m2
13:00 34.9 °F /  1.6 °C 32.5 °F /  0.3 °C 29.75in /  1007.3hPa WNW 7.0mph /  11.3km/h 7.0mph /  11.3km/h 91% 0.00in /  0mm 44 W/m2
13:06 34.9 °F /  1.6 °C 32.5 °F /  0.3 °C 29.75in /  1007.3hPa NNE 6.0mph /  9.7km/h 13.0mph /  20.9km/h 91% 0.00in /  0mm 63 W/m2
13:12 34.9 °F /  1.6 °C 32.3 °F /  0.2 °C 29.76in /  1007.7hPa West 6.0mph /  9.7km/h 7.0mph /  11.3km/h 90% 0.00in /  0mm 67 W/m2
13:18 35.0 °F /  1.7 °C 32.4 °F /  0.2 °C 29.76in /  1007.7hPa NW 6.0mph /  9.7km/h 7.0mph /  11.3km/h 90% 0.00in /  0mm 83 W/m2
13:24 35.0 °F /  1.7 °C 32.4 °F /  0.2 °C 29.76in /  1007.7hPa NW 5.0mph /  8km/h 6.0mph /  9.7km/h 90% 0.00in /  0mm 67 W/m2
13:30 34.9 °F /  1.6 °C 32.3 °F /  0.2 °C 29.76in /  1007.7hPa NW 5.0mph /  8km/h 5.0mph /  8km/h 90% 0.00in /  0mm 139 W/m2
13:36 34.7 °F /  1.5 °C 32.1 °F /  0.1 °C 29.77in /  1008hPa NW 5.0mph /  8km/h 5.0mph /  8km/h 90% 0.00in /  0mm 98 W/m2
13:42 34.6 °F /  1.4 °C 32.0 °F /  0 °C 29.77in /  1008hPa WNW 5.0mph /  8km/h 5.0mph /  8km/h 90% 0.00in /  0mm 125 W/m2
13:48 34.8 °F /  1.6 °C 32.2 °F /  0.1 °C 29.78in /  1008.4hPa NW 5.0mph /  8km/h 6.0mph /  9.7km/h 90% 0.00in /  0mm 200 W/m2
13:54 35.0 °F /  1.7 °C 32.4 °F /  0.2 °C 29.78in /  1008.4hPa WNW 4.0mph /  6.4km/h 8.0mph /  12.9km/h 90% 0.00in /  0mm 178 W/m2
14:00 34.8 °F /  1.6 °C 32.2 °F /  0.1 °C 29.78in /  1008.4hPa NW 5.0mph /  8km/h 7.0mph /  11.3km/h 90% 0.00in /  0mm 84 W/m2
14:06 34.6 °F /  1.4 °C 32.0 °F /  0 °C 29.79in /  1008.7hPa NW 5.0mph /  8km/h 9.0mph /  14.5km/h 90% 0.00in /  0mm 32 W/m2
14:12 34.5 °F /  1.4 °C 31.6 °F /  -0.2 °C 29.79in /  1008.7hPa West 5.0mph /  8km/h 7.0mph /  11.3km/h 89% 0.00in /  0mm 127 W/m2
14:18 34.5 °F /  1.4 °C 31.6 °F /  -0.2 °C 29.80in /  1009hPa NNW 6.0mph /  9.7km/h 9.0mph /  14.5km/h 89% 0.00in /  0mm 95 W/m2
14:24 34.4 °F /  1.3 °C 31.2 °F /  -0.4 °C 29.80in /  1009hPa WNW 7.0mph /  11.3km/h 11.0mph /  17.7km/h 88% 0.00in /  0mm 37 W/m2
14:30 34.1 °F /  1.2 °C 30.6 °F /  -0.8 °C 29.81in /  1009.4hPa NW 7.0mph /  11.3km/h 12.0mph /  19.3km/h 87% 0.00in /  0mm 42 W/m2
14:36 33.9 °F /  1.1 °C 30.4 °F /  -0.9 °C 29.81in /  1009.4hPa NW 7.0mph /  11.3km/h 12.0mph /  19.3km/h 87% 0.00in /  0mm 98 W/m2
14:42 33.7 °F /  0.9 °C 30.0 °F /  -1.1 °C 29.82in /  1009.7hPa NW 7.0mph /  11.3km/h 10.0mph /  16.1km/h 86% 0.00in /  0mm 79 W/m2
14:48 33.5 °F /  0.8 °C 29.8 °F /  -1.2 °C 29.83in /  1010hPa WNW 7.0mph /  11.3km/h 10.0mph /  16.1km/h 86% 0.00in /  0mm 139 W/m2
14:54 33.4 °F /  0.8 °C 29.4 °F /  -1.4 °C 29.83in /  1010hPa NW 6.0mph /  9.7km/h 12.0mph /  19.3km/h 85% 0.00in /  0mm 70 W/m2
15:00 33.1 °F /  0.6 °C 28.8 °F /  -1.8 °C 29.83in /  1010hPa NW 7.0mph /  11.3km/h 9.0mph /  14.5km/h 84% 0.00in /  0mm 95 W/m2
15:06 33.1 °F /  0.6 °C 28.8 °F /  -1.8 °C 29.84in /  1010.4hPa WNW 6.0mph /  9.7km/h 9.0mph /  14.5km/h 84% 0.00in /  0mm 107 W/m2
15:12 33.0 °F /  0.6 °C 28.7 °F /  -1.8 °C 29.84in /  1010.4hPa NW 6.0mph /  9.7km/h 8.0mph /  12.9km/h 84% 0.00in /  0mm 107 W/m2
15:18 33.0 °F /  0.6 °C 28.4 °F /  -2 °C 29.85in /  1010.7hPa West 6.0mph /  9.7km/h 11.0mph /  17.7km/h 83% 0.00in /  0mm 137 W/m2
15:24 33.1 °F /  0.6 °C 28.2 °F /  -2.1 °C 29.85in /  1010.7hPa WNW 7.0mph /  11.3km/h 9.0mph /  14.5km/h 82% 0.00in /  0mm 183 W/m2
15:30 33.5 °F /  0.8 °C 28.3 °F /  -2.1 °C 29.86in /  1011.1hPa NW 7.0mph /  11.3km/h 7.0mph /  11.3km/h 81% 0.00in /  0mm 84 W/m2
15:36 33.1 °F /  0.6 °C 27.9 °F /  -2.3 °C 29.86in /  1011.1hPa West 7.0mph /  11.3km/h 7.0mph /  11.3km/h 81% 0.00in /  0mm 125 W/m2
15:42 33.1 °F /  0.6 °C 27.6 °F /  -2.4 °C 29.87in /  1011.4hPa WNW 6.0mph /  9.7km/h 8.0mph /  12.9km/h 80% 0.00in /  0mm 113 W/m2
15:48 32.6 °F /  0.3 °C 26.5 °F /  -3.1 °C 29.88in /  1011.7hPa NNW 7.0mph /  11.3km/h 10.0mph /  16.1km/h 78% 0.00in /  0mm 81 W/m2
15:54 32.6 °F /  0.3 °C 26.5 °F /  -3.1 °C 29.88in /  1011.7hPa NW 7.0mph /  11.3km/h 7.0mph /  11.3km/h 78% 0.00in /  0mm 251 W/m2
16:00 32.7 °F /  0.4 °C 26.6 °F /  -3 °C 29.88in /  1011.7hPa West 6.0mph /  9.7km/h 8.0mph /  12.9km/h 78% 0.00in /  0mm 294 W/m2
16:06 32.9 °F /  0.5 °C 26.5 °F /  -3.1 °C 29.89in /  1012.1hPa WNW 6.0mph /  9.7km/h 9.0mph /  14.5km/h 77% 0.00in /  0mm 260 W/m2
16:14 33.2 °F /  0.7 °C 26.1 °F /  -3.3 °C 29.90in /  1012.4hPa WNW 5.0mph /  8km/h 6.0mph /  9.7km/h 75% 0.00in /  0mm 237 W/m2
16:20 33.1 °F /  0.6 °C 26.4 °F /  -3.1 °C 29.90in /  1012.4hPa WNW 5.0mph /  8km/h 5.0mph /  8km/h 76% 0.00in /  0mm 47 W/m2
16:26 32.8 °F /  0.4 °C 25.4 °F /  -3.7 °C 29.91in /  1012.8hPa WNW 6.0mph /  9.7km/h 9.0mph /  14.5km/h 74% 0.00in /  0mm 42 W/m2
16:32 32.6 °F /  0.3 °C 25.2 °F /  -3.8 °C 29.91in /  1012.8hPa WNW 7.0mph /  11.3km/h 7.0mph /  11.3km/h 74% 0.00in /  0mm 44 W/m2
16:38 32.5 °F /  0.3 °C 25.1 °F /  -3.8 °C 29.92in /  1013.1hPa NW 6.0mph /  9.7km/h 10.0mph /  16.1km/h 74% 0.00in /  0mm 35 W/m2
16:44 32.2 °F /  0.1 °C 24.8 °F /  -4 °C 29.92in /  1013.1hPa West 6.0mph /  9.7km/h 18.0mph /  29km/h 74% 0.00in /  0mm 32 W/m2
16:50 31.9 °F /  -0.1 °C 24.2 °F /  -4.3 °C 29.92in /  1013.1hPa West 7.0mph /  11.3km/h 7.0mph /  11.3km/h 73% 0.00in /  0mm 28 W/m2
16:56 31.7 °F /  -0.2 °C 24.4 °F /  -4.2 °C 29.93in /  1013.4hPa WNW 7.0mph /  11.3km/h 11.0mph /  17.7km/h 74% 0.00in /  0mm 25 W/m2
17:02 31.5 °F /  -0.3 °C 23.8 °F /  -4.6 °C 29.94in /  1013.8hPa WNW 6.0mph /  9.7km/h 7.0mph /  11.3km/h 73% 0.00in /  0mm 21 W/m2
17:08 31.4 °F /  -0.3 °C 23.7 °F /  -4.6 °C 29.94in /  1013.8hPa WNW 6.0mph /  9.7km/h 11.0mph /  17.7km/h 73% 0.00in /  0mm 19 W/m2
17:14 31.2 °F /  -0.4 °C 23.5 °F /  -4.7 °C 29.95in /  1014.1hPa West 7.0mph /  11.3km/h 7.0mph /  11.3km/h 73% 0.00in /  0mm 16 W/m2
17:20 31.0 °F /  -0.6 °C 23.4 °F /  -4.8 °C 29.96in /  1014.4hPa WNW 6.0mph /  9.7km/h 7.0mph /  11.3km/h 73% 0.00in /  0mm 14 W/m2
17:26 30.8 °F /  -0.7 °C 22.8 °F /  -5.1 °C 29.97in /  1014.8hPa NW 6.0mph /  9.7km/h 16.0mph /  25.7km/h 72% 0.00in /  0mm 11 W/m2
17:32 30.6 °F /  -0.8 °C 22.6 °F /  -5.2 °C 29.97in /  1014.8hPa WNW 8.0mph /  12.9km/h 8.0mph /  12.9km/h 72% 0.00in /  0mm 9 W/m2
17:38 30.4 °F /  -0.9 °C 22.4 °F /  -5.3 °C 29.98in /  1015.1hPa West 8.0mph /  12.9km/h 13.0mph /  20.9km/h 72% 0.00in /  0mm 5 W/m2
17:44 30.2 °F /  -1 °C 22.3 °F /  -5.4 °C 29.99in /  1015.5hPa WNW 8.0mph /  12.9km/h 8.0mph /  12.9km/h 72% 0.00in /  0mm 0 W/m2
17:50 30.0 °F /  -1.1 °C 22.4 °F /  -5.3 °C 29.99in /  1015.5hPa WNW 7.0mph /  11.3km/h 7.0mph /  11.3km/h 73% 0.00in /  0mm 0 W/m2
17:56 29.8 °F /  -1.2 °C 22.2 °F /  -5.4 °C 29.99in /  1015.5hPa NW 6.0mph /  9.7km/h 10.0mph /  16.1km/h 73% 0.00in /  0mm 0 W/m2
18:02 29.6 °F /  -1.3 °C 22.0 °F /  -5.6 °C 30.00in /  1015.8hPa WNW 7.0mph /  11.3km/h 9.0mph /  14.5km/h 73% 0.00in /  0mm 0 W/m2
18:08 29.5 °F /  -1.4 °C 21.6 °F /  -5.8 °C 30.01in /  1016.1hPa WNW 7.0mph /  11.3km/h 16.0mph /  25.7km/h 72% 0.00in /  0mm 0 W/m2
18:14 29.4 °F /  -1.4 °C 21.2 °F /  -6 °C 30.02in /  1016.5hPa NW 7.0mph /  11.3km/h 8.0mph /  12.9km/h 71% 0.00in /  0mm 0 W/m2
18:20 29.1 °F /  -1.6 °C 20.9 °F /  -6.2 °C 30.02in /  1016.5hPa WNW 6.0mph /  9.7km/h 6.0mph /  9.7km/h 71% 0.00in /  0mm 0 W/m2
18:26 29.0 °F /  -1.7 °C 20.4 °F /  -6.4 °C 30.03in /  1016.8hPa West 7.0mph /  11.3km/h 10.0mph /  16.1km/h 70% 0.00in /  0mm 0 W/m2
18:32 28.8 °F /  -1.8 °C 19.6 °F /  -6.9 °C 30.04in /  1017.2hPa NW 8.0mph /  12.9km/h 10.0mph /  16.1km/h 68% 0.00in /  0mm 0 W/m2
18:38 28.6 °F /  -1.9 °C 19.0 °F /  -7.2 °C 30.05in /  1017.5hPa WNW 7.0mph /  11.3km/h 10.0mph /  16.1km/h 67% 0.00in /  0mm 0 W/m2
18:44 28.5 °F /  -1.9 °C 19.3 °F /  -7.1 °C 30.05in /  1017.5hPa WNW 7.0mph /  11.3km/h 13.0mph /  20.9km/h 68% 0.00in /  0mm 0 W/m2
18:50 28.3 °F /  -2.1 °C 19.1 °F /  -7.2 °C 30.06in /  1017.8hPa NW 5.0mph /  8km/h 5.0mph /  8km/h 68% 0.00in /  0mm 0 W/m2
18:56 28.2 °F /  -2.1 °C 18.3 °F /  -7.6 °C 30.07in /  1018.2hPa WNW 7.0mph /  11.3km/h 11.0mph /  17.7km/h 66% 0.00in /  0mm 0 W/m2
19:02 28.0 °F /  -2.2 °C 18.1 °F /  -7.7 °C 30.07in /  1018.2hPa WNW 8.0mph /  12.9km/h 9.0mph /  14.5km/h 66% 0.00in /  0mm 0 W/m2
19:08 28.0 °F /  -2.2 °C 18.1 °F /  -7.7 °C 30.08in /  1018.5hPa WNW 6.0mph /  9.7km/h 10.0mph /  16.1km/h 66% 0.00in /  0mm 0 W/m2
19:14 27.8 °F /  -2.3 °C 18.3 °F /  -7.6 °C 30.08in /  1018.5hPa WNW 5.0mph /  8km/h 6.0mph /  9.7km/h 67% 0.00in /  0mm 0 W/m2
19:20 27.7 °F /  -2.4 °C 18.5 °F /  -7.5 °C 30.08in /  1018.5hPa NW 5.0mph /  8km/h 5.0mph /  8km/h 68% 0.00in /  0mm 0 W/m2
19:26 27.6 °F /  -2.4 °C 18.1 °F /  -7.7 °C 30.09in /  1018.8hPa NNW 6.0mph /  9.7km/h 7.0mph /  11.3km/h 67% 0.00in /  0mm 0 W/m2
19:32 27.7 °F /  -2.4 °C 17.8 °F /  -7.9 °C 30.10in /  1019.2hPa WNW 6.0mph /  9.7km/h 8.0mph /  12.9km/h 66% 0.00in /  0mm 0 W/m2
19:38 27.6 °F /  -2.4 °C 17.4 °F /  -8.1 °C 30.10in /  1019.2hPa NW 5.0mph /  8km/h 8.0mph /  12.9km/h 65% 0.00in /  0mm 0 W/m2
19:44 27.5 °F /  -2.5 °C 16.9 °F /  -8.4 °C 30.10in /  1019.2hPa NW 7.0mph /  11.3km/h 7.0mph /  11.3km/h 64% 0.00in /  0mm 0 W/m2
19:50 27.5 °F /  -2.5 °C 17.3 °F /  -8.2 °C 30.11in /  1019.5hPa NW 6.0mph /  9.7km/h 6.0mph /  9.7km/h 65% 0.00in /  0mm 0 W/m2
19:56 27.4 °F /  -2.6 °C 16.8 °F /  -8.4 °C 30.11in /  1019.5hPa WNW 6.0mph /  9.7km/h 8.0mph /  12.9km/h 64% 0.00in /  0mm 0 W/m2
20:02 27.3 °F /  -2.6 °C 17.1 °F /  -8.3 °C 30.11in /  1019.5hPa NW 5.0mph /  8km/h 7.0mph /  11.3km/h 65% 0.00in /  0mm 0 W/m2
20:08 27.3 °F /  -2.6 °C 16.7 °F /  -8.5 °C 30.12in /  1019.9hPa NW 6.0mph /  9.7km/h 11.0mph /  17.7km/h 64% 0.00in /  0mm 0 W/m2
20:14 27.2 °F /  -2.7 °C 16.6 °F /  -8.6 °C 30.13in /  1020.2hPa WNW 6.0mph /  9.7km/h 7.0mph /  11.3km/h 64% 0.00in /  0mm 0 W/m2
20:20 27.1 °F /  -2.7 °C 16.2 °F /  -8.8 °C 30.13in /  1020.2hPa NNW 6.0mph /  9.7km/h 8.0mph /  12.9km/h 63% 0.00in /  0mm 0 W/m2
20:26 27.0 °F /  -2.8 °C 16.1 °F /  -8.8 °C 30.14in /  1020.5hPa WNW 7.0mph /  11.3km/h 8.0mph /  12.9km/h 63% 0.00in /  0mm 0 W/m2
20:32 26.9 °F /  -2.8 °C 16.3 °F /  -8.7 °C 30.14in /  1020.5hPa WNW 6.0mph /  9.7km/h 6.0mph /  9.7km/h 64% 0.00in /  0mm 0 W/m2
20:38 26.7 °F /  -2.9 °C 16.1 °F /  -8.8 °C 30.15in /  1020.9hPa WNW 5.0mph /  8km/h 8.0mph /  12.9km/h 64% 0.00in /  0mm 0 W/m2
20:44 26.6 °F /  -3 °C 16.1 °F /  -8.8 °C 30.15in /  1020.9hPa WNW 6.0mph /  9.7km/h 7.0mph /  11.3km/h 64% 0.00in /  0mm 0 W/m2
20:50 26.4 °F /  -3.1 °C 16.2 °F /  -8.8 °C 30.15in /  1020.9hPa NW 5.0mph /  8km/h 7.0mph /  11.3km/h 65% 0.00in /  0mm 0 W/m2
20:56 26.3 °F /  -3.2 °C 16.1 °F /  -8.8 °C 30.15in /  1020.9hPa West 5.0mph /  8km/h 9.0mph /  14.5km/h 65% 0.00in /  0mm 0 W/m2
21:02 26.3 °F /  -3.2 °C 16.1 °F /  -8.8 °C 30.16in /  1021.2hPa WNW 6.0mph /  9.7km/h 6.0mph /  9.7km/h 65% 0.00in /  0mm 0 W/m2
21:08 26.2 °F /  -3.2 °C 16.0 °F /  -8.9 °C 30.16in /  1021.2hPa NW 6.0mph /  9.7km/h 10.0mph /  16.1km/h 65% 0.00in /  0mm 0 W/m2
21:14 26.0 °F /  -3.3 °C 15.8 °F /  -9 °C 30.16in /  1021.2hPa West 6.0mph /  9.7km/h 6.0mph /  9.7km/h 65% 0.00in /  0mm 0 W/m2
21:20 25.9 °F /  -3.4 °C 16.1 °F /  -8.8 °C 30.17in /  1021.6hPa NW 5.0mph /  8km/h 5.0mph /  8km/h 66% 0.00in /  0mm 0 W/m2
21:26 25.8 °F /  -3.4 °C 16.0 °F /  -8.9 °C 30.17in /  1021.6hPa West 4.0mph /  6.4km/h 13.0mph /  20.9km/h 66% 0.00in /  0mm 0 W/m2
21:32 25.8 °F /  -3.4 °C 16.0 °F /  -8.9 °C 30.17in /  1021.6hPa WNW 5.0mph /  8km/h 6.0mph /  9.7km/h 66% 0.00in /  0mm 0 W/m2
21:38 25.6 °F /  -3.6 °C 15.8 °F /  -9 °C 30.18in /  1021.9hPa WNW 4.0mph /  6.4km/h 6.0mph /  9.7km/h 66% 0.00in /  0mm 0 W/m2
21:44 25.6 °F /  -3.6 °C 15.8 °F /  -9 °C 30.18in /  1021.9hPa WNW 4.0mph /  6.4km/h 10.0mph /  16.1km/h 66% 0.00in /  0mm 0 W/m2
21:50 25.5 °F /  -3.6 °C 15.7 °F /  -9.1 °C 30.18in /  1021.9hPa NW 5.0mph /  8km/h 5.0mph /  8km/h 66% 0.00in /  0mm 0 W/m2
21:56 25.4 °F /  -3.7 °C 15.6 °F /  -9.1 °C 30.18in /  1021.9hPa WNW 4.0mph /  6.4km/h 5.0mph /  8km/h 66% 0.00in /  0mm 0 W/m2
22:02 25.3 °F /  -3.7 °C 15.9 °F /  -8.9 °C 30.19in /  1022.2hPa NW 4.0mph /  6.4km/h 5.0mph /  8km/h 67% 0.00in /  0mm 0 W/m2
22:08 25.2 °F /  -3.8 °C 15.8 °F /  -9 °C 30.19in /  1022.2hPa WNW 3.0mph /  4.8km/h 5.0mph /  8km/h 67% 0.00in /  0mm 0 W/m2
22:14 25.1 °F /  -3.8 °C 15.7 °F /  -9.1 °C 30.19in /  1022.2hPa WNW 3.0mph /  4.8km/h 5.0mph /  8km/h 67% 0.00in /  0mm 0 W/m2
22:20 25.0 °F /  -3.9 °C 15.9 °F /  -8.9 °C 30.19in /  1022.2hPa WNW 3.0mph /  4.8km/h 3.0mph /  4.8km/h 68% 0.00in /  0mm 0 W/m2
22:26 25.0 °F /  -3.9 °C 15.9 °F /  -8.9 °C 30.20in /  1022.6hPa WNW 2.0mph /  3.2km/h 7.0mph /  11.3km/h 68% 0.00in /  0mm 0 W/m2
22:32 25.0 °F /  -3.9 °C 15.9 °F /  -8.9 °C 30.20in /  1022.6hPa NW 3.0mph /  4.8km/h 4.0mph /  6.4km/h 68% 0.00in /  0mm 0 W/m2
22:38 24.9 °F /  -3.9 °C 15.8 °F /  -9 °C 30.21in /  1022.9hPa WNW 3.0mph /  4.8km/h 5.0mph /  8km/h 68% 0.00in /  0mm 0 W/m2
22:44 24.9 °F /  -3.9 °C 15.8 °F /  -9 °C 30.21in /  1022.9hPa NW 3.0mph /  4.8km/h 3.0mph /  4.8km/h 68% 0.00in /  0mm 0 W/m2
22:50 24.8 °F /  -4 °C 15.7 °F /  -9.1 °C 30.21in /  1022.9hPa WNW 3.0mph /  4.8km/h 4.0mph /  6.4km/h 68% 0.00in /  0mm 0 W/m2
22:56 24.7 °F /  -4.1 °C 15.6 °F /  -9.1 °C 30.21in /  1022.9hPa WNW 3.0mph /  4.8km/h 5.0mph /  8km/h 68% 0.00in /  0mm 0 W/m2
23:02 24.6 °F /  -4.1 °C 15.5 °F /  -9.2 °C 30.21in /  1022.9hPa NW 3.0mph /  4.8km/h 5.0mph /  8km/h 68% 0.00in /  0mm 0 W/m2
23:08 24.5 °F /  -4.2 °C 15.8 °F /  -9 °C 30.22in /  1023.2hPa NW 2.0mph /  3.2km/h 5.0mph /  8km/h 69% 0.00in /  0mm 0 W/m2
23:14 24.4 °F /  -4.2 °C 15.7 °F /  -9.1 °C 30.22in /  1023.2hPa NW 1.0mph /  1.6km/h 3.0mph /  4.8km/h 69% 0.00in /  0mm 0 W/m2
23:20 24.2 °F /  -4.3 °C 15.5 °F /  -9.2 °C 30.22in /  1023.2hPa NW 2.0mph /  3.2km/h 4.0mph /  6.4km/h 69% 0.00in /  0mm 0 W/m2
23:26 24.3 °F /  -4.3 °C 15.3 °F /  -9.3 °C 30.22in /  1023.2hPa NW 3.0mph /  4.8km/h 6.0mph /  9.7km/h 68% 0.00in /  0mm 0 W/m2
23:32 24.3 °F /  -4.3 °C 15.3 °F /  -9.3 °C 30.22in /  1023.2hPa WNW 3.0mph /  4.8km/h 3.0mph /  4.8km/h 68% 0.00in /  0mm 0 W/m2
23:38 24.1 °F /  -4.4 °C 15.1 °F /  -9.4 °C 30.23in /  1023.6hPa WNW 2.0mph /  3.2km/h 3.0mph /  4.8km/h 68% 0.00in /  0mm 0 W/m2
23:44 24.1 °F /  -4.4 °C 15.1 °F /  -9.4 °C 30.23in /  1023.6hPa NW 2.0mph /  3.2km/h 3.0mph /  4.8km/h 68% 0.00in /  0mm 0 W/m2
23:50 24.0 °F /  -4.4 °C 15.0 °F /  -9.4 °C 30.23in /  1023.6hPa WNW 2.0mph /  3.2km/h 2.0mph /  3.2km/h 68% 0.00in /  0mm 0 W/m2
23:56 23.8 °F /  -4.6 °C 15.1 °F /  -9.4 °C 30.24in /  1023.9hPa WNW 1.0mph /  1.6km/h 2.0mph /  3.2km/h 69% 0.00in /  0mm 0 W/m2
Country Meadow, Clay, NY, USA
Compliments of Weather Underground - 2 mb